Time;durP1;ratioP1;P1;durP2;ratioP2;P2;SDS_P1;SDS_P2;PMS_P1;PMS_P2;Temp;Humidity;BMP_temperature;BMP_pressure;BME280_temperature;BME280_humidity;BME280_pressure;Samples;Min_cycle;Max_cycle;Signal;HPM_P1;HPM_P2
2022/04/17 00:02:08;;;;;;;20.35;11.40;;;;;;;;;;4962213;28;20022;-80
2022/04/17 00:04:34;;;;;;;31.92;12.98;;;;;;;;;;4983202;28;20023;-80
2022/04/17 00:07:00;;;;;;;26.33;13.20;;;;;;;;;;4968536;28;20037;-79
2022/04/17 00:09:26;;;;;;;26.02;13.68;;;;;;;;;;4965430;28;20030;-80
2022/04/17 00:11:52;;;;;;;27.85;13.75;;;;;;;;;;4969924;28;20153;-79
2022/04/17 00:14:18;;;;;;;27.77;14.40;;;;;;;;;;4959763;28;20045;-80
2022/04/17 00:16:44;;;;;;;31.80;16.90;;;;;;;;;;4975847;28;20030;-79
2022/04/17 00:19:10;;;;;;;39.80;20.17;;;;;;;;;;4971950;28;20556;-80
2022/04/17 00:21:36;;;;;;;40.63;21.00;;;;;;;;;;4980409;28;20179;-80
2022/04/17 00:24:02;;;;;;;35.60;18.55;;;;;;;;;;4960844;28;20113;-79
2022/04/17 00:26:28;;;;;;;43.72;23.30;;;;;;;;;;4968664;28;20478;-80
2022/04/17 00:28:54;;;;;;;41.33;20.63;;;;;;;;;;4963849;28;20027;-80
2022/04/17 00:31:20;;;;;;;43.83;20.35;;;;;;;;;;4963142;28;20038;-81
2022/04/17 00:33:46;;;;;;;39.67;20.70;;;;;;;;;;4982279;28;20030;-80
2022/04/17 00:36:12;;;;;;;38.78;20.65;;;;;;;;;;4981319;28;20046;-80
2022/04/17 00:38:38;;;;;;;36.90;20.55;;;;;;;;;;4979032;28;20459;-80
2022/04/17 00:41:04;;;;;;;31.55;18.67;;;;;;;;;;4981003;28;20030;-80
2022/04/17 00:43:34;;;;;;;40.20;18.90;;;;;;;;;;4978968;28;20025;-80
2022/04/17 00:46:00;;;;;;;37.08;19.40;;;;;;;;;;4962474;28;20041;-80
2022/04/17 00:48:27;;;;;;;40.17;20.33;;;;;;;;;;4963010;28;20034;-80
2022/04/17 00:50:55;;;;;;;35.78;19.67;;;;;;;;;;4962550;28;20758;-80
2022/04/17 00:53:24;;;;;;;53.42;27.80;;;;;;;;;;4956695;28;20034;-81
2022/04/17 00:55:51;;;;;;;43.60;22.98;;;;;;;;;;4981279;28;20034;-80
2022/04/17 00:58:18;;;;;;;44.25;24.33;;;;;;;;;;4961914;28;20367;-80
2022/04/17 01:00:45;;;;;;;55.80;26.25;;;;;;;;;;4976876;28;20064;-81
2022/04/17 01:03:12;;;;;;;46.92;24.08;;;;;;;;;;4978969;28;20514;-80
2022/04/17 01:05:41;;;;;;;42.90;25.13;;;;;;;;;;4982767;28;20463;-80
2022/04/17 01:08:08;;;;;;;51.83;25.35;;;;;;;;;;4961222;28;20065;-80
2022/04/17 01:10:34;;;;;;;51.97;25.83;;;;;;;;;;4964046;28;20042;-80
2022/04/17 01:13:02;;;;;;;54.55;26.20;;;;;;;;;;4965720;28;20064;-80
2022/04/17 01:15:28;;;;;;;53.97;29.27;;;;;;;;;;4965455;28;20426;-80
2022/04/17 01:17:55;;;;;;;57.83;29.27;;;;;;;;;;4962832;28;20039;-80
2022/04/17 01:20:22;;;;;;;53.88;29.08;;;;;;;;;;4959317;28;20029;-80
2022/04/17 01:22:48;;;;;;;57.90;27.65;;;;;;;;;;4975899;28;20449;-80
2022/04/17 01:28:00;;;;;;;54.13;27.88;;;;;;;;;;4980086;28;20046;-81
2022/04/17 01:30:26;;;;;;;50.47;27.05;;;;;;;;;;4965282;28;20035;-80
2022/04/17 01:32:52;;;;;;;54.33;28.55;;;;;;;;;;4961555;28;20447;-81
2022/04/17 01:35:18;;;;;;;57.55;30.50;;;;;;;;;;4962409;28;20037;-81
2022/04/17 01:37:48;;;;;;;56.65;30.63;;;;;;;;;;4963811;28;20749;-81
2022/04/17 01:40:14;;;;;;;57.97;30.67;;;;;;;;;;4977387;28;20026;-81
2022/04/17 01:42:40;;;;;;;57.25;29.83;;;;;;;;;;4963157;28;20659;-81
2022/04/17 01:45:06;;;;;;;73.32;34.53;;;;;;;;;;4958346;28;20026;-81
2022/04/17 01:47:32;;;;;;;70.97;36.30;;;;;;;;;;4977737;28;20040;-81
2022/04/17 01:49:59;;;;;;;67.30;34.92;;;;;;;;;;4973330;28;20046;-81
2022/04/17 01:52:25;;;;;;;67.28;33.97;;;;;;;;;;4965109;28;20052;-80
2022/04/17 01:54:51;;;;;;;64.82;32.65;;;;;;;;;;4981480;28;20026;-80
2022/04/17 01:57:18;;;;;;;63.22;32.05;;;;;;;;;;4961466;28;20049;-80
2022/04/17 01:59:44;;;;;;;61.53;34.53;;;;;;;;;;4977905;28;20034;-80
2022/04/17 02:02:10;;;;;;;74.43;37.35;;;;;;;;;;4964852;28;20216;-80
2022/04/17 02:04:42;;;;;;;67.50;36.35;;;;;;;;;;4964204;28;20037;-80
2022/04/17 02:07:08;;;;;;;69.78;34.85;;;;;;;;;;4976580;28;20029;-81
2022/04/17 02:09:34;;;;;;;70.18;36.30;;;;;;;;;;4973027;28;20061;-80
2022/04/17 02:12:01;;;;;;;67.15;35.00;;;;;;;;;;4970510;28;20422;-81
2022/04/17 02:14:27;;;;;;;68.32;34.03;;;;;;;;;;4958798;28;20041;-80
2022/04/17 02:16:53;;;;;;;68.80;33.60;;;;;;;;;;4962681;28;20400;-80
2022/04/17 02:19:19;;;;;;;67.30;35.25;;;;;;;;;;4975637;28;20033;-80
2022/04/17 02:21:45;;;;;;;70.35;36.45;;;;;;;;;;4970211;28;20030;-81
2022/04/17 02:24:11;;;;;;;69.95;36.33;;;;;;;;;;4969298;28;20040;-81
2022/04/17 02:26:37;;;;;;;76.00;37.42;;;;;;;;;;4962613;28;20113;-81
2022/04/17 02:29:03;;;;;;;69.57;38.33;;;;;;;;;;4960581;28;20346;-81
2022/04/17 02:31:29;;;;;;;68.40;36.60;;;;;;;;;;4978826;28;20121;-80
2022/04/17 02:33:57;;;;;;;79.70;37.75;;;;;;;;;;4966498;28;20069;-80
2022/04/17 02:36:23;;;;;;;72.70;37.53;;;;;;;;;;4975563;28;20050;-80
2022/04/17 02:38:49;;;;;;;72.15;38.03;;;;;;;;;;4978340;28;20109;-80
2022/04/17 02:41:15;;;;;;;69.75;37.83;;;;;;;;;;4978530;28;20042;-80
2022/04/17 02:43:41;;;;;;;71.18;36.05;;;;;;;;;;4965247;28;20041;-80
2022/04/17 02:46:07;;;;;;;65.20;34.45;;;;;;;;;;4965913;28;20045;-80
2022/04/17 02:48:34;;;;;;;64.03;32.72;;;;;;;;;;4979880;28;20546;-81
2022/04/17 02:51:00;;;;;;;49.92;25.25;;;;;;;;;;4963143;28;20038;-80
2022/04/17 02:53:26;;;;;;;43.47;20.65;;;;;;;;;;4949351;28;20038;-80
2022/04/17 02:55:52;;;;;;;49.22;21.65;;;;;;;;;;4974011;28;20035;-80
2022/04/17 02:58:19;;;;;;;56.05;28.45;;;;;;;;;;4968793;28;20057;-80
2022/04/17 03:06:14;;;;;;;56.13;29.10;;;;;;;;;;4977924;28;20561;-81
2022/04/17 03:08:41;;;;;;;58.50;31.75;;;;;;;;;;4975455;28;20045;-80
2022/04/17 03:11:07;;;;;;;64.80;32.95;;;;;;;;;;4960690;28;20089;-80
2022/04/17 03:13:33;;;;;;;60.58;32.25;;;;;;;;;;4980469;28;20074;-80
2022/04/17 03:15:59;;;;;;;59.67;31.83;;;;;;;;;;4959432;28;20034;-81
2022/04/17 03:18:26;;;;;;;58.28;31.52;;;;;;;;;;4964554;28;20690;-81
2022/04/17 03:20:52;;;;;;;59.05;31.38;;;;;;;;;;4978113;28;21149;-80
2022/04/17 03:23:18;;;;;;;59.03;32.28;;;;;;;;;;4979528;28;20030;-81
2022/04/17 03:25:44;;;;;;;65.60;33.97;;;;;;;;;;4979695;28;20035;-80
2022/04/17 03:28:10;;;;;;;63.95;33.30;;;;;;;;;;4978138;28;20046;-80
2022/04/17 03:30:36;;;;;;;69.15;33.10;;;;;;;;;;4962769;28;20065;-80
2022/04/17 03:33:02;;;;;;;65.38;32.05;;;;;;;;;;4976618;28;20031;-81
2022/04/17 03:35:30;;;;;;;59.50;31.30;;;;;;;;;;4976222;28;20064;-80
2022/04/17 03:37:57;;;;;;;62.72;31.15;;;;;;;;;;4960071;28;20233;-80
2022/04/17 03:40:23;;;;;;;56.15;30.67;;;;;;;;;;4967538;28;20026;-80
2022/04/17 03:42:52;;;;;;;63.72;31.83;;;;;;;;;;4962651;28;20049;-80
2022/04/17 03:45:18;;;;;;;57.83;33.05;;;;;;;;;;4977931;28;20034;-80
2022/04/17 03:47:45;;;;;;;65.47;32.42;;;;;;;;;;4978182;28;20034;-80
2022/04/17 03:50:11;;;;;;;59.67;30.92;;;;;;;;;;4958524;28;20073;-81
2022/04/17 03:52:38;;;;;;;53.50;29.42;;;;;;;;;;4965186;28;20031;-80
2022/04/17 03:55:05;;;;;;;62.60;30.42;;;;;;;;;;4961642;28;20039;-80
2022/04/17 03:57:31;;;;;;;56.08;28.30;;;;;;;;;;4959591;28;20121;-80
2022/04/17 03:59:57;;;;;;;57.85;28.42;;;;;;;;;;4958067;28;20437;-80
2022/04/17 04:02:24;;;;;;;60.15;28.42;;;;;;;;;;4979568;28;20233;-80
2022/04/17 04:04:57;;;;;;;58.38;30.45;;;;;;;;;;4962823;28;20498;-80
2022/04/17 04:07:24;;;;;;;55.70;28.73;;;;;;;;;;4978940;28;20097;-80
2022/04/17 04:09:50;;;;;;;64.03;29.83;;;;;;;;;;4960857;28;20057;-80
2022/04/17 04:12:16;;;;;;;65.07;29.25;;;;;;;;;;4973785;28;20054;-80
2022/04/17 04:14:43;;;;;;;61.65;30.13;;;;;;;;;;4963491;28;20160;-80
2022/04/17 04:17:09;;;;;;;62.95;32.60;;;;;;;;;;4975119;28;20520;-80
2022/04/17 04:19:35;;;;;;;58.65;28.73;;;;;;;;;;4964161;28;20027;-81
2022/04/17 04:22:01;;;;;;;66.90;29.33;;;;;;;;;;4972052;28;20026;-81
2022/04/17 04:24:27;;;;;;;59.60;28.77;;;;;;;;;;4978508;28;20026;-80
2022/04/17 04:29:38;;;;;;;53.05;26.25;;;;;;;;;;4978922;28;20052;-80
2022/04/17 04:32:05;;;;;;;54.15;27.20;;;;;;;;;;4958201;28;20105;-80
2022/04/17 04:34:31;;;;;;;54.22;27.13;;;;;;;;;;4962189;28;20032;-80
2022/04/17 04:36:57;;;;;;;52.17;26.38;;;;;;;;;;4962121;28;20580;-80
2022/04/17 04:39:23;;;;;;;51.53;25.27;;;;;;;;;;4963533;28;20026;-80
2022/04/17 04:41:49;;;;;;;57.33;28.25;;;;;;;;;;4964514;28;20041;-80
2022/04/17 04:44:15;;;;;;;52.50;26.25;;;;;;;;;;4961793;28;20041;-80
2022/04/17 04:46:41;;;;;;;51.65;26.38;;;;;;;;;;4976013;28;20032;-80
2022/04/17 04:51:52;;;;;;;52.33;26.77;;;;;;;;;;4976748;28;20049;-80
2022/04/17 04:54:17;;;;;;;62.47;27.88;;;;;;;;;;4972566;28;20019;-80
2022/04/17 04:56:44;;;;;;;49.38;26.75;;;;;;;;;;4974070;28;20481;-80
2022/04/17 04:59:10;;;;;;;53.53;25.67;;;;;;;;;;4976486;28;20030;-80
2022/04/17 05:01:36;;;;;;;52.92;26.20;;;;;;;;;;4975339;28;20052;-80
2022/04/17 05:04:02;;;;;;;49.10;24.75;;;;;;;;;;4978487;28;20491;-80
2022/04/17 05:06:28;;;;;;;51.28;24.13;;;;;;;;;;4963467;28;20228;-81
2022/04/17 05:08:54;;;;;;;47.38;25.77;;;;;;;;;;4961114;28;20022;-81
2022/04/17 05:11:20;;;;;;;53.55;24.95;;;;;;;;;;4978771;28;20038;-81
2022/04/17 05:13:53;;;;;;;45.92;24.60;;;;;;;;;;4981032;28;20042;-80
2022/04/17 05:16:19;;;;;;;58.67;25.58;;;;;;;;;;4962235;28;20560;-81
2022/04/17 05:18:47;;;;;;;48.05;24.30;;;;;;;;;;4976615;28;20041;-80
2022/04/17 05:21:13;;;;;;;50.95;23.60;;;;;;;;;;4983428;28;20022;-80
2022/04/17 05:23:39;;;;;;;54.42;25.02;;;;;;;;;;4974846;28;20027;-80
2022/04/17 05:26:05;;;;;;;43.40;22.40;;;;;;;;;;4979180;28;21647;-80
2022/04/17 05:28:32;;;;;;;45.80;22.45;;;;;;;;;;4977748;28;20505;-80
2022/04/17 05:31:00;;;;;;;48.10;24.10;;;;;;;;;;4981405;28;20514;-80
2022/04/17 05:33:26;;;;;;;42.75;21.65;;;;;;;;;;4962232;28;20546;-80
2022/04/17 05:35:52;;;;;;;45.22;21.98;;;;;;;;;;4980025;28;20121;-80
2022/04/17 05:38:20;;;;;;;42.90;22.05;;;;;;;;;;4965048;28;20445;-80
2022/04/17 05:40:47;;;;;;;34.92;18.95;;;;;;;;;;4962953;28;20034;-80
2022/04/17 05:43:14;;;;;;;34.85;18.92;;;;;;;;;;4967343;28;20141;-80
2022/04/17 05:45:40;;;;;;;38.75;18.90;;;;;;;;;;4964205;28;20038;-80
2022/04/17 05:48:09;;;;;;;36.65;18.95;;;;;;;;;;4979070;28;20085;-80
2022/04/17 05:50:37;;;;;;;36.63;16.88;;;;;;;;;;4964896;28;20096;-80
2022/04/17 05:53:03;;;;;;;37.97;19.35;;;;;;;;;;4979519;28;20034;-80
2022/04/17 05:55:29;;;;;;;31.15;18.00;;;;;;;;;;4968735;28;20035;-80
2022/04/17 05:57:55;;;;;;;31.30;16.67;;;;;;;;;;4974757;28;20795;-80
2022/04/17 06:00:22;;;;;;;28.58;16.63;;;;;;;;;;4966019;28;20022;-80
2022/04/17 06:02:48;;;;;;;30.83;16.60;;;;;;;;;;4978392;28;20034;-80
2022/04/17 06:05:15;;;;;;;26.08;15.73;;;;;;;;;;4955397;28;20562;-80
2022/04/17 06:07:41;;;;;;;33.22;17.25;;;;;;;;;;4963171;28;20269;-80
2022/04/17 06:10:08;;;;;;;32.05;16.17;;;;;;;;;;4981564;28;20088;-80
2022/04/17 06:12:35;;;;;;;34.88;15.90;;;;;;;;;;4981816;28;20137;-79
2022/04/17 06:15:01;;;;;;;38.28;17.23;;;;;;;;;;4962324;28;20514;-80
2022/04/17 06:17:27;;;;;;;30.45;15.48;;;;;;;;;;4979022;28;20054;-80
2022/04/17 06:19:53;;;;;;;27.27;16.08;;;;;;;;;;4983912;28;20023;-80
2022/04/17 06:22:19;;;;;;;29.23;15.93;;;;;;;;;;4979871;28;20493;-80
2022/04/17 06:24:45;;;;;;;30.27;14.52;;;;;;;;;;4981674;28;20014;-80
2022/04/17 06:27:11;;;;;;;27.95;15.10;;;;;;;;;;4967706;28;20039;-80
2022/04/17 06:29:37;;;;;;;26.75;14.65;;;;;;;;;;4977546;28;20070;-80
2022/04/17 06:32:04;;;;;;;28.75;14.70;;;;;;;;;;4962229;28;20431;-80
2022/04/17 06:34:30;;;;;;;30.42;15.18;;;;;;;;;;4962173;28;20498;-80
2022/04/17 06:36:56;;;;;;;23.70;13.35;;;;;;;;;;4984088;28;20034;-80
2022/04/17 06:39:22;;;;;;;24.55;14.73;;;;;;;;;;4979838;28;20077;-80
2022/04/17 06:41:49;;;;;;;24.92;13.77;;;;;;;;;;4980607;28;20037;-80
2022/04/17 06:44:15;;;;;;;26.58;14.23;;;;;;;;;;4982782;28;20061;-80
2022/04/17 06:46:41;;;;;;;28.67;14.50;;;;;;;;;;4983007;28;20088;-80
2022/04/17 06:49:08;;;;;;;31.55;15.60;;;;;;;;;;4975744;28;20030;-80
2022/04/17 06:51:34;;;;;;;28.33;14.25;;;;;;;;;;4965917;28;20482;-80
2022/04/17 06:53:59;;;;;;;30.83;13.40;;;;;;;;;;4963434;28;20501;-80
2022/04/17 06:56:25;;;;;;;22.63;11.93;;;;;;;;;;4968740;28;20030;-80
2022/04/17 06:58:52;;;;;;;21.58;12.43;;;;;;;;;;4964680;28;20458;-80
2022/04/17 07:01:18;;;;;;;24.38;13.02;;;;;;;;;;4980110;28;20026;-80
2022/04/17 07:03:45;;;;;;;22.35;12.48;;;;;;;;;;4974935;28;20022;-80
2022/04/17 07:06:11;;;;;;;24.58;13.32;;;;;;;;;;4970578;28;20495;-80
2022/04/17 07:08:37;;;;;;;25.38;12.48;;;;;;;;;;4978097;28;20030;-80
2022/04/17 07:11:04;;;;;;;23.88;12.93;;;;;;;;;;4956784;28;20035;-80
2022/04/17 07:13:30;;;;;;;23.10;11.68;;;;;;;;;;4966524;28;20043;-80
2022/04/17 07:15:57;;;;;;;21.48;12.48;;;;;;;;;;4966153;28;20043;-80
2022/04/17 07:18:23;;;;;;;23.52;12.48;;;;;;;;;;4969111;28;20399;-80
2022/04/17 07:20:49;;;;;;;23.85;13.07;;;;;;;;;;4948157;28;20556;-80
2022/04/17 07:23:15;;;;;;;24.85;11.90;;;;;;;;;;4981963;28;20034;-80
2022/04/17 07:25:42;;;;;;;21.50;10.88;;;;;;;;;;4983308;28;20691;-80
2022/04/17 07:28:15;;;;;;;18.55;11.25;;;;;;;;;;4967083;28;20026;-80
2022/04/17 07:30:41;;;;;;;21.52;10.32;;;;;;;;;;4973940;28;20045;-80
2022/04/17 07:33:07;;;;;;;17.23;8.90;;;;;;;;;;4977354;28;20031;-80
2022/04/17 07:35:33;;;;;;;20.48;8.95;;;;;;;;;;4984874;28;20371;-80
2022/04/17 07:38:02;;;;;;;15.63;9.82;;;;;;;;;;4983469;28;20053;-80
2022/04/17 07:40:30;;;;;;;16.58;8.90;;;;;;;;;;4971105;28;20051;-80
2022/04/17 07:42:58;;;;;;;16.88;9.63;;;;;;;;;;4961402;28;20034;-80
2022/04/17 07:45:24;;;;;;;17.42;8.82;;;;;;;;;;4978578;28;20029;-80
2022/04/17 07:47:51;;;;;;;16.65;9.65;;;;;;;;;;4963406;28;20042;-80
2022/04/17 07:50:18;;;;;;;17.23;9.25;;;;;;;;;;4974521;28;20030;-80
2022/04/17 07:52:44;;;;;;;15.68;9.05;;;;;;;;;;4965277;28;20034;-80
2022/04/17 07:55:11;;;;;;;14.85;8.57;;;;;;;;;;4977647;28;20466;-80
2022/04/17 08:00:23;;;;;;;15.05;9.32;;;;;;;;;;4978929;28;20116;-80
2022/04/17 08:03:06;;;;;;;16.08;6.40;;;;;;;;;;4963148;28;20023;-80
2022/04/17 08:05:34;;;;;;;16.13;7.85;;;;;;;;;;4971714;28;20042;-80
2022/04/17 08:08:00;;;;;;;10.57;6.95;;;;;;;;;;4979968;28;20038;-80
2022/04/17 08:10:26;;;;;;;13.82;7.80;;;;;;;;;;4963984;28;20088;-80
2022/04/17 08:12:52;;;;;;;13.75;8.85;;;;;;;;;;4963341;28;20896;-80
2022/04/17 08:15:19;;;;;;;18.08;9.32;;;;;;;;;;4962561;28;20027;-80
2022/04/17 08:17:52;;;;;;;11.00;8.00;;;;;;;;;;4966140;28;20576;-80
2022/04/17 08:20:19;;;;;;;16.92;8.48;;;;;;;;;;4961674;28;20023;-79
2022/04/17 08:22:46;;;;;;;16.30;9.00;;;;;;;;;;4964994;28;20034;-80
2022/04/17 08:25:12;;;;;;;14.50;9.05;;;;;;;;;;4959089;28;20029;-80
2022/04/17 08:27:45;;;;;;;15.05;9.40;;;;;;;;;;4976693;28;20650;-80
2022/04/17 08:30:11;;;;;;;13.90;8.93;;;;;;;;;;4974183;28;20513;-80
2022/04/17 08:32:37;;;;;;;21.65;8.30;;;;;;;;;;4974814;28;20113;-79
2022/04/17 08:35:03;;;;;;;16.90;9.00;;;;;;;;;;4967151;28;20454;-79
2022/04/17 08:37:30;;;;;;;17.02;8.55;;;;;;;;;;4971206;28;20129;-80
2022/04/17 08:39:56;;;;;;;11.40;7.88;;;;;;;;;;4971254;28;21657;-79
2022/04/17 08:42:24;;;;;;;14.13;7.70;;;;;;;;;;4980678;28;20109;-79
2022/04/17 08:44:56;;;;;;;12.63;7.93;;;;;;;;;;4965709;28;20447;-79
2022/04/17 08:47:22;;;;;;;18.35;8.82;;;;;;;;;;4965198;28;20141;-79
2022/04/17 08:49:49;;;;;;;14.82;7.75;;;;;;;;;;4976138;28;20038;-79
2022/04/17 08:52:15;;;;;;;11.75;7.93;;;;;;;;;;4978078;28;20039;-80
2022/04/17 08:54:45;;;;;;;15.55;7.47;;;;;;;;;;4962218;28;20038;-80
2022/04/17 08:57:11;;;;;;;12.48;8.13;;;;;;;;;;4956500;28;20058;-80
2022/04/17 08:59:38;;;;;;;12.52;7.78;;;;;;;;;;4981135;28;20023;-80
2022/04/17 09:02:10;;;;;;;15.82;7.25;;;;;;;;;;4961496;28;20656;-81
2022/04/17 09:04:36;;;;;;;11.60;6.28;;;;;;;;;;4962115;28;20051;-80
2022/04/17 09:07:02;;;;;;;13.27;6.80;;;;;;;;;;4984151;28;20886;-81
2022/04/17 09:09:28;;;;;;;11.55;6.50;;;;;;;;;;4986131;28;20030;-80
2022/04/17 09:11:55;;;;;;;14.05;7.07;;;;;;;;;;4989465;28;20790;-81
2022/04/17 09:14:21;;;;;;;10.02;6.53;;;;;;;;;;4972650;28;20137;-81
2022/04/17 09:16:50;;;;;;;10.48;5.93;;;;;;;;;;4966188;28;20062;-81
2022/04/17 09:19:17;;;;;;;11.52;6.30;;;;;;;;;;4965902;28;20022;-79
2022/04/17 09:21:43;;;;;;;14.80;7.70;;;;;;;;;;4961391;28;20074;-80
2022/04/17 09:24:17;;;;;;;11.85;6.78;;;;;;;;;;4966282;28;20042;-80
2022/04/17 09:26:50;;;;;;;8.43;6.00;;;;;;;;;;4978193;28;20059;-79
2022/04/17 09:29:20;;;;;;;11.20;5.75;;;;;;;;;;4966155;28;20034;-79
2022/04/17 09:31:47;;;;;;;10.32;6.72;;;;;;;;;;4965297;28;20581;-79
2022/04/17 09:34:14;;;;;;;9.30;5.47;;;;;;;;;;4961969;28;20041;-79
2022/04/17 09:36:40;;;;;;;10.63;5.60;;;;;;;;;;4965985;28;20104;-79
2022/04/17 09:39:20;;;;;;;7.72;5.18;;;;;;;;;;4963362;28;20062;-79
2022/04/17 09:41:56;;;;;;;15.48;6.30;;;;;;;;;;4968703;28;20066;-79
2022/04/17 09:44:35;;;;;;;8.90;6.30;;;;;;;;;;4963616;28;20034;-79
2022/04/17 09:47:01;;;;;;;11.05;6.18;;;;;;;;;;4980502;28;20093;-79
2022/04/17 09:49:27;;;;;;;8.20;5.18;;;;;;;;;;4978417;28;20038;-78
2022/04/17 09:52:09;;;;;;;6.35;4.80;;;;;;;;;;4977056;28;20035;-78
2022/04/17 09:54:36;;;;;;;7.60;5.10;;;;;;;;;;4979374;28;20034;-79
2022/04/17 09:57:04;;;;;;;8.57;5.20;;;;;;;;;;4965556;28;20041;-79
2022/04/17 09:59:32;;;;;;;10.85;6.38;;;;;;;;;;4963350;28;20560;-79
2022/04/17 10:01:58;;;;;;;10.35;6.07;;;;;;;;;;4979786;28;20053;-79
2022/04/17 10:04:25;;;;;;;11.02;6.32;;;;;;;;;;4978132;28;20505;-78
2022/04/17 10:06:52;;;;;;;7.90;5.70;;;;;;;;;;4979924;28;20493;-80
2022/04/17 10:09:19;;;;;;;11.10;5.50;;;;;;;;;;4978953;28;20101;-80
2022/04/17 10:11:46;;;;;;;5.78;4.43;;;;;;;;;;4964605;28;20414;-80
2022/04/17 10:14:12;;;;;;;7.18;4.53;;;;;;;;;;4981016;28;21701;-79
2022/04/17 10:16:42;;;;;;;5.60;3.45;;;;;;;;;;4962674;28;20084;-78
2022/04/17 10:19:13;;;;;;;7.05;4.65;;;;;;;;;;4961523;28;20951;-79
2022/04/17 10:21:40;;;;;;;7.57;4.07;;;;;;;;;;4962058;28;20041;-78
2022/04/17 10:24:06;;;;;;;7.03;4.28;;;;;;;;;;4977332;28;20034;-77
2022/04/17 10:26:38;;;;;;;4.68;4.18;;;;;;;;;;4976772;28;20050;-79
2022/04/17 10:29:05;;;;;;;8.38;4.60;;;;;;;;;;4983635;28;20035;-79
2022/04/17 10:31:40;;;;;;;9.02;4.60;;;;;;;;;;4983625;28;21620;-79
2022/04/17 10:34:18;;;;;;;7.85;4.72;;;;;;;;;;4978843;28;20154;-80
2022/04/17 10:36:56;;;;;;;12.77;5.65;;;;;;;;;;4979724;28;20038;-76
2022/04/17 10:39:30;;;;;;;7.68;5.30;;;;;;;;;;4961941;28;20030;-77
2022/04/17 10:41:58;;;;;;;8.23;5.45;;;;;;;;;;4982851;28;20081;-78
2022/04/17 10:44:28;;;;;;;8.00;5.07;;;;;;;;;;4974198;28;20022;-78
2022/04/17 10:46:54;;;;;;;7.30;5.20;;;;;;;;;;4969838;28;20105;-78
2022/04/17 10:49:21;;;;;;;7.13;5.18;;;;;;;;;;4982128;28;20548;-78
2022/04/17 10:51:51;;;;;;;7.38;5.30;;;;;;;;;;4981802;28;20692;-78
2022/04/17 10:54:17;;;;;;;6.43;4.75;;;;;;;;;;4981234;28;20026;-78
2022/04/17 10:56:55;;;;;;;5.40;4.32;;;;;;;;;;4967746;28;20037;-78
2022/04/17 10:59:26;;;;;;;8.38;4.50;;;;;;;;;;4979562;28;20121;-78
2022/04/17 11:01:59;;;;;;;7.80;5.30;;;;;;;;;;4980571;28;20093;-78
2022/04/17 11:04:30;;;;;;;10.98;4.32;;;;;;;;;;4966175;28;20035;-78
2022/04/17 11:07:05;;;;;;;6.18;4.53;;;;;;;;;;4978057;28;20438;-78
2022/04/17 11:09:33;;;;;;;6.63;4.75;;;;;;;;;;4976477;28;20490;-78
2022/04/17 11:12:27;;;;;;;7.82;4.80;;;;;;;;;;4979964;28;20141;-78
2022/04/17 11:14:54;;;;;;;6.32;4.15;;;;;;;;;;4974159;28;20051;-79
2022/04/17 11:17:23;;;;;;;7.88;4.55;;;;;;;;;;4979581;28;20042;-78
2022/04/17 11:19:52;;;;;;;6.60;4.47;;;;;;;;;;4978872;28;20056;-78
2022/04/17 11:22:18;;;;;;;7.60;4.70;;;;;;;;;;4962480;28;20040;-78
2022/04/17 11:24:57;;;;;;;5.78;5.05;;;;;;;;;;4964419;28;20037;-78
2022/04/17 11:27:42;;;;;;;6.68;4.57;;;;;;;;;;4980786;28;20510;-78
2022/04/17 11:30:17;;;;;;;6.18;4.65;;;;;;;;;;4978972;28;20098;-78
2022/04/17 11:32:43;;;;;;;9.90;6.28;;;;;;;;;;4966495;28;20038;-79
2022/04/17 11:35:10;;;;;;;6.32;4.50;;;;;;;;;;4967101;28;20041;-79
2022/04/17 11:37:36;;;;;;;8.88;4.68;;;;;;;;;;4981503;28;20077;-79
2022/04/17 11:40:15;;;;;;;9.02;4.68;;;;;;;;;;4976230;28;20030;-78
2022/04/17 11:42:45;;;;;;;7.88;4.57;;;;;;;;;;4972160;28;20034;-78
2022/04/17 11:45:12;;;;;;;6.50;4.35;;;;;;;;;;4965067;28;20031;-79
2022/04/17 11:47:42;;;;;;;6.10;3.97;;;;;;;;;;4982541;28;20100;-78
2022/04/17 11:50:09;;;;;;;5.43;4.40;;;;;;;;;;4965084;28;20109;-78
2022/04/17 11:52:35;;;;;;;8.00;4.47;;;;;;;;;;4981706;28;20379;-78
2022/04/17 11:55:01;;;;;;;6.35;4.25;;;;;;;;;;4981284;28;20521;-78
2022/04/17 11:57:28;;;;;;;7.53;4.32;;;;;;;;;;4980911;28;20180;-78
2022/04/17 11:59:57;;;;;;;8.05;5.13;;;;;;;;;;4965907;28;20110;-78
2022/04/17 12:02:27;;;;;;;9.85;4.82;;;;;;;;;;4981938;28;20037;-79
2022/04/17 12:04:57;;;;;;;8.40;4.95;;;;;;;;;;4978600;28;20014;-79
2022/04/17 12:07:24;;;;;;;6.35;4.45;;;;;;;;;;4981518;28;20078;-79
2022/04/17 12:09:51;;;;;;;7.03;4.93;;;;;;;;;;4976015;28;20375;-79
2022/04/17 12:12:18;;;;;;;13.10;5.32;;;;;;;;;;4977471;28;20490;-80
2022/04/17 12:14:47;;;;;;;7.10;4.65;;;;;;;;;;4964088;28;20042;-80
2022/04/17 12:17:16;;;;;;;7.70;5.03;;;;;;;;;;4977365;28;20041;-80
2022/04/17 12:19:52;;;;;;;7.43;4.93;;;;;;;;;;4978921;28;20053;-80
2022/04/17 12:22:18;;;;;;;8.68;4.70;;;;;;;;;;4976179;28;20084;-80
2022/04/17 12:24:45;;;;;;;7.00;5.10;;;;;;;;;;4961734;28;20084;-79
2022/04/17 12:27:21;;;;;;;16.98;5.30;;;;;;;;;;4976987;28;20109;-84
2022/04/17 12:29:52;;;;;;;8.60;5.03;;;;;;;;;;4965534;28;20677;-82
2022/04/17 12:32:21;;;;;;;11.30;5.03;;;;;;;;;;4956206;28;20112;-82
2022/04/17 12:34:47;;;;;;;7.30;4.93;;;;;;;;;;4980825;28;20045;-85
2022/04/17 12:37:25;;;;;;;9.00;5.63;;;;;;;;;;4978552;28;20578;-84
2022/04/17 12:39:51;;;;;;;8.95;5.53;;;;;;;;;;4961729;28;20031;-82
2022/04/17 12:42:18;;;;;;;11.15;5.00;;;;;;;;;;4975209;28;20026;-81
2022/04/17 12:44:44;;;;;;;8.15;5.47;;;;;;;;;;4975890;28;20030;-82
2022/04/17 12:47:18;;;;;;;6.30;4.55;;;;;;;;;;4959808;28;20070;-81
2022/04/17 12:49:44;;;;;;;11.05;6.40;;;;;;;;;;4962510;28;20113;-81
2022/04/17 12:52:20;;;;;;;9.23;5.70;;;;;;;;;;4974393;28;20133;-83
2022/04/17 12:54:46;;;;;;;6.85;4.80;;;;;;;;;;4972553;28;20050;-82
2022/04/17 12:57:13;;;;;;;7.57;5.35;;;;;;;;;;4956898;28;20162;-82
2022/04/17 12:59:43;;;;;;;9.65;4.88;;;;;;;;;;4960975;28;20114;-82
2022/04/17 13:02:13;;;;;;;7.07;4.90;;;;;;;;;;4966572;28;20085;-81
2022/04/17 13:04:43;;;;;;;8.57;4.85;;;;;;;;;;4960077;28;20030;-83
2022/04/17 13:07:11;;;;;;;7.05;4.47;;;;;;;;;;4962756;28;20150;-82
2022/04/17 13:09:37;;;;;;;7.72;4.90;;;;;;;;;;4972135;28;20097;-83
2022/04/17 13:12:10;;;;;;;6.85;4.38;;;;;;;;;;4960559;28;20045;-81
2022/04/17 13:15:01;;;;;;;11.18;4.88;;;;;;;;;;4976967;28;20457;-81
2022/04/17 13:17:27;;;;;;;8.13;5.07;;;;;;;;;;4976859;28;20026;-82
2022/04/17 13:19:53;;;;;;;9.73;5.65;;;;;;;;;;4958028;28;20382;-82
2022/04/17 13:22:19;;;;;;;10.48;5.00;;;;;;;;;;4964484;28;20026;-83
2022/04/17 13:24:45;;;;;;;8.10;4.40;;;;;;;;;;4962936;28;20038;-83
2022/04/17 13:27:12;;;;;;;7.93;5.10;;;;;;;;;;4961935;28;20034;-83
2022/04/17 13:29:38;;;;;;;6.70;4.88;;;;;;;;;;4978142;28;20022;-83
2022/04/17 13:32:05;;;;;;;10.07;5.07;;;;;;;;;;4960609;28;20039;-81
2022/04/17 13:34:33;;;;;;;8.23;5.03;;;;;;;;;;4977317;28;20495;-81
2022/04/17 13:39:47;;;;;;;7.40;4.85;;;;;;;;;;4978884;28;20045;-81
2022/04/17 13:42:13;;;;;;;6.53;5.18;;;;;;;;;;4980777;28;20118;-81
2022/04/17 13:44:39;;;;;;;7.57;4.80;;;;;;;;;;4963530;28;20121;-81
2022/04/17 13:47:05;;;;;;;11.18;4.45;;;;;;;;;;4964942;28;20102;-80
2022/04/17 13:49:31;;;;;;;8.13;4.65;;;;;;;;;;4974741;28;20030;-81
2022/04/17 13:51:58;;;;;;;7.93;5.00;;;;;;;;;;4967140;28;20112;-81
2022/04/17 13:54:24;;;;;;;6.35;4.40;;;;;;;;;;4967131;28;20939;-81
2022/04/17 13:56:50;;;;;;;8.57;4.28;;;;;;;;;;4971231;28;20410;-81
2022/04/17 13:59:16;;;;;;;7.95;4.28;;;;;;;;;;4965327;28;20018;-81
2022/04/17 14:01:42;;;;;;;11.23;4.72;;;;;;;;;;4981021;28;20037;-81
2022/04/17 14:04:08;;;;;;;6.35;4.53;;;;;;;;;;4985905;28;20093;-81
2022/04/17 14:06:35;;;;;;;6.10;4.55;;;;;;;;;;4969166;28;20033;-81
2022/04/17 14:09:02;;;;;;;8.32;4.35;;;;;;;;;;4985431;28;20169;-81
2022/04/17 14:11:29;;;;;;;7.18;4.93;;;;;;;;;;4969375;28;20508;-81
2022/04/17 14:13:56;;;;;;;8.68;5.50;;;;;;;;;;4984947;28;20039;-81
2022/04/17 14:16:22;;;;;;;8.38;4.32;;;;;;;;;;4977523;28;20062;-81
2022/04/17 14:18:48;;;;;;;6.15;4.43;;;;;;;;;;4978413;28;20628;-81
2022/04/17 14:21:14;;;;;;;8.07;5.07;;;;;;;;;;4987278;28;20030;-81
2022/04/17 14:23:40;;;;;;;10.38;5.60;;;;;;;;;;4967025;28;20065;-81
2022/04/17 14:26:06;;;;;;;7.00;4.80;;;;;;;;;;4986478;28;20096;-81
2022/04/17 14:28:32;;;;;;;9.55;4.93;;;;;;;;;;4981038;28;20129;-81
2022/04/17 14:30:58;;;;;;;5.45;3.65;;;;;;;;;;4983636;28;20027;-80
2022/04/17 14:33:24;;;;;;;7.68;4.65;;;;;;;;;;4982425;28;20034;-81
2022/04/17 14:35:56;;;;;;;5.70;4.35;;;;;;;;;;4966098;28;20401;-81
2022/04/17 14:38:22;;;;;;;8.07;4.57;;;;;;;;;;4985175;28;20752;-81
2022/04/17 14:40:48;;;;;;;8.00;4.55;;;;;;;;;;4965755;28;20631;-81
2022/04/17 14:43:14;;;;;;;8.05;3.83;;;;;;;;;;4978041;28;20038;-81
2022/04/17 14:45:41;;;;;;;6.47;4.18;;;;;;;;;;4967373;28;20505;-81
2022/04/17 14:48:07;;;;;;;4.75;3.75;;;;;;;;;;4977493;28;20034;-80
2022/04/17 14:50:33;;;;;;;5.57;3.97;;;;;;;;;;4984030;28;20301;-81